sensor_id;sensor_type;location;lat;lon;timestamp;temperature;humidity
48206;DHT22;33995;48.202;16.260;2023-07-28T00:02:05;19.70;99.90
48206;DHT22;33995;48.202;16.260;2023-07-28T00:04:35;19.70;99.90
48206;DHT22;33995;48.202;16.260;2023-07-28T00:07:06;19.70;99.90
48206;DHT22;33995;48.202;16.260;2023-07-28T00:09:47;19.70;99.90
48206;DHT22;33995;48.202;16.260;2023-07-28T00:12:19;19.70;99.90
48206;DHT22;33995;48.202;16.260;2023-07-28T00:14:54;19.70;99.90
48206;DHT22;33995;48.202;16.260;2023-07-28T00:17:23;19.70;99.90
48206;DHT22;33995;48.202;16.260;2023-07-28T00:19:58;19.70;99.90
48206;DHT22;33995;48.202;16.260;2023-07-28T00:22:37;19.70;99.90
48206;DHT22;33995;48.202;16.260;2023-07-28T00:25:07;19.80;99.90
48206;DHT22;33995;48.202;16.260;2023-07-28T00:27:38;19.80;99.90
48206;DHT22;33995;48.202;16.260;2023-07-28T00:30:10;19.80;99.90
48206;DHT22;33995;48.202;16.260;2023-07-28T00:32:40;19.80;99.90
48206;DHT22;33995;48.202;16.260;2023-07-28T00:35:12;19.90;99.90
48206;DHT22;33995;48.202;16.260;2023-07-28T00:37:43;19.90;99.90
48206;DHT22;33995;48.202;16.260;2023-07-28T00:40:14;19.90;99.90
48206;DHT22;33995;48.202;16.260;2023-07-28T00:42:43;19.80;99.90
48206;DHT22;33995;48.202;16.260;2023-07-28T00:45:17;19.80;99.90
48206;DHT22;33995;48.202;16.260;2023-07-28T00:47:48;19.90;99.90
48206;DHT22;33995;48.202;16.260;2023-07-28T00:50:27;19.90;99.90
48206;DHT22;33995;48.202;16.260;2023-07-28T00:53:01;19.90;99.90
48206;DHT22;33995;48.202;16.260;2023-07-28T00:55:30;19.90;99.90
48206;DHT22;33995;48.202;16.260;2023-07-28T00:58:04;19.90;99.90
48206;DHT22;33995;48.202;16.260;2023-07-28T01:00:36;19.90;99.90
48206;DHT22;33995;48.202;16.260;2023-07-28T01:03:07;19.90;99.90
48206;DHT22;33995;48.202;16.260;2023-07-28T01:05:57;19.90;99.90
48206;DHT22;33995;48.202;16.260;2023-07-28T01:08:55;19.90;99.90
48206;DHT22;33995;48.202;16.260;2023-07-28T01:11:35;19.90;99.90
48206;DHT22;33995;48.202;16.260;2023-07-28T01:14:05;19.90;99.90
48206;DHT22;33995;48.202;16.260;2023-07-28T01:16:42;19.90;99.90
48206;DHT22;33995;48.202;16.260;2023-07-28T01:19:21;19.90;99.90
48206;DHT22;33995;48.202;16.260;2023-07-28T01:28:15;19.90;99.90
48206;DHT22;33995;48.202;16.260;2023-07-28T01:30:46;19.80;99.90
48206;DHT22;33995;48.202;16.260;2023-07-28T01:33:23;19.80;99.90
48206;DHT22;33995;48.202;16.260;2023-07-28T01:35:54;19.80;99.90
48206;DHT22;33995;48.202;16.260;2023-07-28T01:38:22;19.80;99.90
48206;DHT22;33995;48.202;16.260;2023-07-28T01:40:52;19.80;99.90
48206;DHT22;33995;48.202;16.260;2023-07-28T01:43:23;19.80;99.90
48206;DHT22;33995;48.202;16.260;2023-07-28T01:45:51;19.70;99.90
48206;DHT22;33995;48.202;16.260;2023-07-28T01:48:21;19.70;99.90
48206;DHT22;33995;48.202;16.260;2023-07-28T01:50:50;19.70;99.90
48206;DHT22;33995;48.202;16.260;2023-07-28T01:53:22;19.70;99.90
48206;DHT22;33995;48.202;16.260;2023-07-28T01:55:56;19.60;99.90
48206;DHT22;33995;48.202;16.260;2023-07-28T01:58:27;19.60;99.90
48206;DHT22;33995;48.202;16.260;2023-07-28T02:01:02;19.60;99.90
48206;DHT22;33995;48.202;16.260;2023-07-28T02:03:31;19.50;99.90
48206;DHT22;33995;48.202;16.260;2023-07-28T02:06:02;19.50;99.90
48206;DHT22;33995;48.202;16.260;2023-07-28T02:08:35;19.50;99.90
48206;DHT22;33995;48.202;16.260;2023-07-28T02:11:04;19.40;99.90
48206;DHT22;33995;48.202;16.260;2023-07-28T02:13:38;19.40;99.90
48206;DHT22;33995;48.202;16.260;2023-07-28T02:16:15;19.30;99.90
48206;DHT22;33995;48.202;16.260;2023-07-28T02:18:48;19.30;99.90
48206;DHT22;33995;48.202;16.260;2023-07-28T02:21:19;19.30;99.90
48206;DHT22;33995;48.202;16.260;2023-07-28T02:23:52;19.30;99.90
48206;DHT22;33995;48.202;16.260;2023-07-28T02:26:29;19.20;99.90
48206;DHT22;33995;48.202;16.260;2023-07-28T02:29:04;19.20;99.90
48206;DHT22;33995;48.202;16.260;2023-07-28T02:31:40;19.20;99.90
48206;DHT22;33995;48.202;16.260;2023-07-28T02:34:07;19.20;99.90
48206;DHT22;33995;48.202;16.260;2023-07-28T02:36:37;19.20;99.90
48206;DHT22;33995;48.202;16.260;2023-07-28T02:39:05;19.30;99.90
48206;DHT22;33995;48.202;16.260;2023-07-28T02:41:38;19.20;99.90
48206;DHT22;33995;48.202;16.260;2023-07-28T02:44:10;19.10;99.90
48206;DHT22;33995;48.202;16.260;2023-07-28T02:46:41;19.10;99.90
48206;DHT22;33995;48.202;16.260;2023-07-28T02:49:13;19.00;99.90
48206;DHT22;33995;48.202;16.260;2023-07-28T02:51:47;19.10;99.90
48206;DHT22;33995;48.202;16.260;2023-07-28T02:54:20;19.00;99.90
48206;DHT22;33995;48.202;16.260;2023-07-28T02:56:55;19.10;99.90
48206;DHT22;33995;48.202;16.260;2023-07-28T02:59:25;19.00;99.90
48206;DHT22;33995;48.202;16.260;2023-07-28T03:02:07;19.00;99.90
48206;DHT22;33995;48.202;16.260;2023-07-28T03:04:42;19.00;99.90
48206;DHT22;33995;48.202;16.260;2023-07-28T03:07:16;19.10;99.90
48206;DHT22;33995;48.202;16.260;2023-07-28T03:09:54;19.00;99.90
48206;DHT22;33995;48.202;16.260;2023-07-28T03:12:22;18.90;99.90
48206;DHT22;33995;48.202;16.260;2023-07-28T03:14:55;18.90;99.90
48206;DHT22;33995;48.202;16.260;2023-07-28T03:17:23;18.90;99.90
48206;DHT22;33995;48.202;16.260;2023-07-28T03:19:55;18.90;99.90
48206;DHT22;33995;48.202;16.260;2023-07-28T03:22:27;18.80;99.90
48206;DHT22;33995;48.202;16.260;2023-07-28T03:24:58;18.80;99.90
48206;DHT22;33995;48.202;16.260;2023-07-28T03:27:28;18.80;99.90
48206;DHT22;33995;48.202;16.260;2023-07-28T03:30:03;18.70;99.90
48206;DHT22;33995;48.202;16.260;2023-07-28T03:32:50;18.80;99.90
48206;DHT22;33995;48.202;16.260;2023-07-28T03:35:24;18.80;99.90
48206;DHT22;33995;48.202;16.260;2023-07-28T03:38:05;18.80;99.90
48206;DHT22;33995;48.202;16.260;2023-07-28T03:40:45;18.80;99.90
48206;DHT22;33995;48.202;16.260;2023-07-28T03:43:13;18.70;99.90
48206;DHT22;33995;48.202;16.260;2023-07-28T03:45:49;18.70;99.90
48206;DHT22;33995;48.202;16.260;2023-07-28T03:48:21;18.70;99.90
48206;DHT22;33995;48.202;16.260;2023-07-28T03:50:49;18.70;99.90
48206;DHT22;33995;48.202;16.260;2023-07-28T03:53:23;18.70;99.90
48206;DHT22;33995;48.202;16.260;2023-07-28T03:55:54;18.70;99.90
48206;DHT22;33995;48.202;16.260;2023-07-28T03:58:30;18.60;99.90
48206;DHT22;33995;48.202;16.260;2023-07-28T04:00:58;18.60;99.90
48206;DHT22;33995;48.202;16.260;2023-07-28T04:03:29;18.70;99.90
48206;DHT22;33995;48.202;16.260;2023-07-28T04:05:58;18.60;99.90
48206;DHT22;33995;48.202;16.260;2023-07-28T04:08:39;18.60;99.90
48206;DHT22;33995;48.202;16.260;2023-07-28T04:11:16;18.60;99.90
48206;DHT22;33995;48.202;16.260;2023-07-28T04:13:47;18.50;99.90
48206;DHT22;33995;48.202;16.260;2023-07-28T04:16:22;18.60;99.90
48206;DHT22;33995;48.202;16.260;2023-07-28T04:18:54;18.60;99.90
48206;DHT22;33995;48.202;16.260;2023-07-28T04:21:27;18.70;99.90
48206;DHT22;33995;48.202;16.260;2023-07-28T04:23:59;18.70;99.90
48206;DHT22;33995;48.202;16.260;2023-07-28T04:26:30;18.70;99.90
48206;DHT22;33995;48.202;16.260;2023-07-28T04:29:04;18.70;99.90
48206;DHT22;33995;48.202;16.260;2023-07-28T04:31:39;18.60;99.90
48206;DHT22;33995;48.202;16.260;2023-07-28T04:34:15;18.60;99.90
48206;DHT22;33995;48.202;16.260;2023-07-28T04:37:16;18.60;99.90
48206;DHT22;33995;48.202;16.260;2023-07-28T04:40:10;18.70;99.90
48206;DHT22;33995;48.202;16.260;2023-07-28T04:42:41;18.70;99.90
48206;DHT22;33995;48.202;16.260;2023-07-28T04:45:17;18.60;99.90
48206;DHT22;33995;48.202;16.260;2023-07-28T04:47:51;18.70;99.90
48206;DHT22;33995;48.202;16.260;2023-07-28T04:50:25;18.70;99.90
48206;DHT22;33995;48.202;16.260;2023-07-28T04:53:24;18.70;99.90
48206;DHT22;33995;48.202;16.260;2023-07-28T04:56:03;18.70;99.90
48206;DHT22;33995;48.202;16.260;2023-07-28T04:58:37;18.80;99.90
48206;DHT22;33995;48.202;16.260;2023-07-28T05:01:10;18.80;99.90
48206;DHT22;33995;48.202;16.260;2023-07-28T05:03:45;18.80;99.90
48206;DHT22;33995;48.202;16.260;2023-07-28T05:06:24;18.80;99.90
48206;DHT22;33995;48.202;16.260;2023-07-28T05:08:56;18.80;99.90
48206;DHT22;33995;48.202;16.260;2023-07-28T05:11:36;18.90;99.90
48206;DHT22;33995;48.202;16.260;2023-07-28T05:14:16;18.90;99.90
48206;DHT22;33995;48.202;16.260;2023-07-28T05:16:50;18.80;99.90
48206;DHT22;33995;48.202;16.260;2023-07-28T05:19:37;18.80;99.90
48206;DHT22;33995;48.202;16.260;2023-07-28T05:22:29;18.90;99.90
48206;DHT22;33995;48.202;16.260;2023-07-28T05:25:00;18.80;99.90
48206;DHT22;33995;48.202;16.260;2023-07-28T05:27:37;18.80;99.90
48206;DHT22;33995;48.202;16.260;2023-07-28T05:30:08;18.80;99.90
48206;DHT22;33995;48.202;16.260;2023-07-28T05:32:42;18.80;99.90
48206;DHT22;33995;48.202;16.260;2023-07-28T05:35:21;18.90;99.90
48206;DHT22;33995;48.202;16.260;2023-07-28T05:38:02;18.90;99.90
48206;DHT22;33995;48.202;16.260;2023-07-28T05:40:29;18.90;99.90
48206;DHT22;33995;48.202;16.260;2023-07-28T05:43:00;18.90;99.90
48206;DHT22;33995;48.202;16.260;2023-07-28T05:45:31;19.00;99.90
48206;DHT22;33995;48.202;16.260;2023-07-28T05:48:02;19.00;99.90
48206;DHT22;33995;48.202;16.260;2023-07-28T05:50:31;19.00;99.90
48206;DHT22;33995;48.202;16.260;2023-07-28T05:53:07;19.00;99.90
48206;DHT22;33995;48.202;16.260;2023-07-28T05:55:44;19.00;99.90
48206;DHT22;33995;48.202;16.260;2023-07-28T05:58:15;19.10;99.90
48206;DHT22;33995;48.202;16.260;2023-07-28T06:00:44;19.10;99.90
48206;DHT22;33995;48.202;16.260;2023-07-28T06:03:40;19.10;99.90
48206;DHT22;33995;48.202;16.260;2023-07-28T06:06:26;19.20;99.90
48206;DHT22;33995;48.202;16.260;2023-07-28T06:08:58;19.30;99.90
48206;DHT22;33995;48.202;16.260;2023-07-28T06:11:28;19.40;99.90
48206;DHT22;33995;48.202;16.260;2023-07-28T06:14:02;19.40;99.90
48206;DHT22;33995;48.202;16.260;2023-07-28T06:16:36;19.40;99.90
48206;DHT22;33995;48.202;16.260;2023-07-28T06:19:09;19.50;99.90
48206;DHT22;33995;48.202;16.260;2023-07-28T06:21:42;19.50;99.90
48206;DHT22;33995;48.202;16.260;2023-07-28T06:24:17;19.60;99.90
48206;DHT22;33995;48.202;16.260;2023-07-28T06:26:56;19.60;99.90
48206;DHT22;33995;48.202;16.260;2023-07-28T06:29:27;19.70;99.90
48206;DHT22;33995;48.202;16.260;2023-07-28T06:32:12;19.80;99.90
48206;DHT22;33995;48.202;16.260;2023-07-28T06:34:45;19.80;99.90
48206;DHT22;33995;48.202;16.260;2023-07-28T06:37:23;19.80;99.90
48206;DHT22;33995;48.202;16.260;2023-07-28T06:39:54;20.00;99.90
48206;DHT22;33995;48.202;16.260;2023-07-28T06:42:28;20.10;99.90
48206;DHT22;33995;48.202;16.260;2023-07-28T06:45:25;20.30;99.90
48206;DHT22;33995;48.202;16.260;2023-07-28T06:47:59;20.40;99.90
48206;DHT22;33995;48.202;16.260;2023-07-28T06:50:32;20.50;99.90
48206;DHT22;33995;48.202;16.260;2023-07-28T06:53:02;20.70;99.90
48206;DHT22;33995;48.202;16.260;2023-07-28T06:55:32;20.80;99.90
48206;DHT22;33995;48.202;16.260;2023-07-28T06:58:10;20.90;99.90
48206;DHT22;33995;48.202;16.260;2023-07-28T07:01:03;21.00;99.90
48206;DHT22;33995;48.202;16.260;2023-07-28T07:03:38;21.20;99.90
48206;DHT22;33995;48.202;16.260;2023-07-28T07:06:13;21.40;99.90
48206;DHT22;33995;48.202;16.260;2023-07-28T07:08:47;21.60;99.90
48206;DHT22;33995;48.202;16.260;2023-07-28T07:11:18;21.80;99.90
48206;DHT22;33995;48.202;16.260;2023-07-28T07:13:49;22.00;99.90
48206;DHT22;33995;48.202;16.260;2023-07-28T07:16:20;22.20;99.90
48206;DHT22;33995;48.202;16.260;2023-07-28T07:18:52;22.40;99.90
48206;DHT22;33995;48.202;16.260;2023-07-28T07:21:24;22.60;99.90
48206;DHT22;33995;48.202;16.260;2023-07-28T07:23:55;22.80;99.90
48206;DHT22;33995;48.202;16.260;2023-07-28T07:26:39;23.10;99.90
48206;DHT22;33995;48.202;16.260;2023-07-28T07:29:07;23.30;99.90
48206;DHT22;33995;48.202;16.260;2023-07-28T07:31:36;23.50;99.90
48206;DHT22;33995;48.202;16.260;2023-07-28T07:34:10;23.80;99.90
48206;DHT22;33995;48.202;16.260;2023-07-28T07:36:37;24.00;99.90
48206;DHT22;33995;48.202;16.260;2023-07-28T07:39:13;24.30;99.90
48206;DHT22;33995;48.202;16.260;2023-07-28T07:41:49;24.50;99.90
48206;DHT22;33995;48.202;16.260;2023-07-28T07:44:28;24.80;99.90
48206;DHT22;33995;48.202;16.260;2023-07-28T07:47:01;25.00;99.90
48206;DHT22;33995;48.202;16.260;2023-07-28T07:49:43;25.20;99.90
48206;DHT22;33995;48.202;16.260;2023-07-28T07:52:16;25.30;99.90
48206;DHT22;33995;48.202;16.260;2023-07-28T07:54:52;25.40;99.90
48206;DHT22;33995;48.202;16.260;2023-07-28T07:57:25;25.50;99.90
48206;DHT22;33995;48.202;16.260;2023-07-28T07:59:58;25.70;99.90
48206;DHT22;33995;48.202;16.260;2023-07-28T08:02:52;25.70;99.90
48206;DHT22;33995;48.202;16.260;2023-07-28T08:05:25;25.80;99.90
48206;DHT22;33995;48.202;16.260;2023-07-28T08:08:00;25.90;99.90
48206;DHT22;33995;48.202;16.260;2023-07-28T08:10:38;26.10;99.90
48206;DHT22;33995;48.202;16.260;2023-07-28T08:13:14;26.20;99.90
48206;DHT22;33995;48.202;16.260;2023-07-28T08:15:44;26.30;99.90
48206;DHT22;33995;48.202;16.260;2023-07-28T08:18:15;26.40;99.90
48206;DHT22;33995;48.202;16.260;2023-07-28T08:20:45;26.50;99.90
48206;DHT22;33995;48.202;16.260;2023-07-28T08:23:15;26.60;99.90
48206;DHT22;33995;48.202;16.260;2023-07-28T08:25:56;26.60;99.90
48206;DHT22;33995;48.202;16.260;2023-07-28T08:28:30;26.60;99.90
48206;DHT22;33995;48.202;16.260;2023-07-28T08:31:07;26.70;99.90
48206;DHT22;33995;48.202;16.260;2023-07-28T08:33:43;26.70;99.90
48206;DHT22;33995;48.202;16.260;2023-07-28T08:36:17;26.80;99.90
48206;DHT22;33995;48.202;16.260;2023-07-28T08:38:51;26.90;99.90
48206;DHT22;33995;48.202;16.260;2023-07-28T08:41:21;26.90;99.80
48206;DHT22;33995;48.202;16.260;2023-07-28T08:43:54;26.90;99.50
48206;DHT22;33995;48.202;16.260;2023-07-28T08:46:27;27.00;99.70
48206;DHT22;33995;48.202;16.260;2023-07-28T08:49:03;26.90;99.60
48206;DHT22;33995;48.202;16.260;2023-07-28T08:51:42;26.90;99.70
48206;DHT22;33995;48.202;16.260;2023-07-28T08:54:18;26.90;99.40
48206;DHT22;33995;48.202;16.260;2023-07-28T08:57:01;27.00;99.50
48206;DHT22;33995;48.202;16.260;2023-07-28T08:59:30;27.00;99.40
48206;DHT22;33995;48.202;16.260;2023-07-28T09:02:04;27.10;99.30
48206;DHT22;33995;48.202;16.260;2023-07-28T09:04:35;27.00;99.20
48206;DHT22;33995;48.202;16.260;2023-07-28T09:07:09;26.90;99.20
48206;DHT22;33995;48.202;16.260;2023-07-28T09:09:47;27.10;99.40
48206;DHT22;33995;48.202;16.260;2023-07-28T09:12:24;27.10;99.40
48206;DHT22;33995;48.202;16.260;2023-07-28T09:14:57;27.10;99.50
48206;DHT22;33995;48.202;16.260;2023-07-28T09:17:41;27.20;99.20
48206;DHT22;33995;48.202;16.260;2023-07-28T09:20:14;27.20;99.20
48206;DHT22;33995;48.202;16.260;2023-07-28T09:22:50;27.30;99.20
48206;DHT22;33995;48.202;16.260;2023-07-28T09:25:25;27.30;98.90
48206;DHT22;33995;48.202;16.260;2023-07-28T09:27:59;27.50;99.00
48206;DHT22;33995;48.202;16.260;2023-07-28T09:30:50;27.60;98.80
48206;DHT22;33995;48.202;16.260;2023-07-28T09:33:37;27.70;99.00
48206;DHT22;33995;48.202;16.260;2023-07-28T09:36:17;27.80;98.40
48206;DHT22;33995;48.202;16.260;2023-07-28T09:38:49;27.80;98.00
48206;DHT22;33995;48.202;16.260;2023-07-28T09:41:19;27.80;97.90
48206;DHT22;33995;48.202;16.260;2023-07-28T09:43:56;27.70;97.60
48206;DHT22;33995;48.202;16.260;2023-07-28T09:46:29;27.70;97.50
48206;DHT22;33995;48.202;16.260;2023-07-28T09:49:09;27.60;97.30
48206;DHT22;33995;48.202;16.260;2023-07-28T09:51:48;27.60;97.50
48206;DHT22;33995;48.202;16.260;2023-07-28T09:54:33;27.60;97.60
48206;DHT22;33995;48.202;16.260;2023-07-28T09:57:19;27.70;97.60
48206;DHT22;33995;48.202;16.260;2023-07-28T09:59:54;27.60;97.50
48206;DHT22;33995;48.202;16.260;2023-07-28T10:02:49;27.70;97.50
48206;DHT22;33995;48.202;16.260;2023-07-28T10:05:22;27.90;97.80
48206;DHT22;33995;48.202;16.260;2023-07-28T10:07:52;28.10;97.80
48206;DHT22;33995;48.202;16.260;2023-07-28T10:10:24;28.20;97.20
48206;DHT22;33995;48.202;16.260;2023-07-28T10:12:58;28.20;97.50
48206;DHT22;33995;48.202;16.260;2023-07-28T10:15:40;28.30;97.10
48206;DHT22;33995;48.202;16.260;2023-07-28T10:18:15;28.60;97.10
48206;DHT22;33995;48.202;16.260;2023-07-28T10:20:47;28.70;97.20
48206;DHT22;33995;48.202;16.260;2023-07-28T10:23:26;28.50;97.10
48206;DHT22;33995;48.202;16.260;2023-07-28T10:25:58;28.30;97.10
48206;DHT22;33995;48.202;16.260;2023-07-28T10:28:50;28.40;97.70
48206;DHT22;33995;48.202;16.260;2023-07-28T10:31:30;28.50;97.00
48206;DHT22;33995;48.202;16.260;2023-07-28T10:34:01;28.50;97.40
48206;DHT22;33995;48.202;16.260;2023-07-28T10:36:59;28.40;97.40
48206;DHT22;33995;48.202;16.260;2023-07-28T10:43:01;28.40;97.70
48206;DHT22;33995;48.202;16.260;2023-07-28T10:45:33;28.50;97.80
48206;DHT22;33995;48.202;16.260;2023-07-28T10:48:05;28.50;97.70
48206;DHT22;33995;48.202;16.260;2023-07-28T10:50:50;28.50;97.90
48206;DHT22;33995;48.202;16.260;2023-07-28T10:53:20;28.40;97.90
48206;DHT22;33995;48.202;16.260;2023-07-28T10:56:02;28.20;98.00
48206;DHT22;33995;48.202;16.260;2023-07-28T10:59:11;28.00;98.50
48206;DHT22;33995;48.202;16.260;2023-07-28T11:01:45;27.70;98.70
48206;DHT22;33995;48.202;16.260;2023-07-28T11:04:22;27.60;98.70
48206;DHT22;33995;48.202;16.260;2023-07-28T11:07:00;27.80;98.90
48206;DHT22;33995;48.202;16.260;2023-07-28T11:09:34;27.70;99.00
48206;DHT22;33995;48.202;16.260;2023-07-28T11:12:04;27.40;98.90
48206;DHT22;33995;48.202;16.260;2023-07-28T11:14:44;27.60;99.10
48206;DHT22;33995;48.202;16.260;2023-07-28T11:17:20;27.80;99.40
48206;DHT22;33995;48.202;16.260;2023-07-28T11:19:51;28.00;99.00
48206;DHT22;33995;48.202;16.260;2023-07-28T11:22:19;27.90;98.70
48206;DHT22;33995;48.202;16.260;2023-07-28T11:24:53;27.90;99.00
48206;DHT22;33995;48.202;16.260;2023-07-28T11:27:27;27.90;99.00
48206;DHT22;33995;48.202;16.260;2023-07-28T11:29:59;27.90;98.90
48206;DHT22;33995;48.202;16.260;2023-07-28T11:32:48;28.00;98.90
48206;DHT22;33995;48.202;16.260;2023-07-28T11:35:21;28.20;99.00
48206;DHT22;33995;48.202;16.260;2023-07-28T11:37:55;28.30;99.10
48206;DHT22;33995;48.202;16.260;2023-07-28T11:40:23;28.40;98.20
48206;DHT22;33995;48.202;16.260;2023-07-28T11:42:55;28.50;98.60
48206;DHT22;33995;48.202;16.260;2023-07-28T11:45:28;28.70;98.20
48206;DHT22;33995;48.202;16.260;2023-07-28T11:48:15;28.80;98.40
48206;DHT22;33995;48.202;16.260;2023-07-28T11:50:47;28.90;98.00
48206;DHT22;33995;48.202;16.260;2023-07-28T11:53:17;28.90;98.00
48206;DHT22;33995;48.202;16.260;2023-07-28T11:55:54;28.90;97.60
48206;DHT22;33995;48.202;16.260;2023-07-28T11:58:31;29.00;97.30
48206;DHT22;33995;48.202;16.260;2023-07-28T12:01:07;29.00;96.90
48206;DHT22;33995;48.202;16.260;2023-07-28T12:03:40;29.10;96.40
48206;DHT22;33995;48.202;16.260;2023-07-28T12:06:13;29.00;96.40
48206;DHT22;33995;48.202;16.260;2023-07-28T12:09:05;29.00;96.70
48206;DHT22;33995;48.202;16.260;2023-07-28T12:11:43;29.00;96.90
48206;DHT22;33995;48.202;16.260;2023-07-28T12:14:33;29.10;97.20
48206;DHT22;33995;48.202;16.260;2023-07-28T12:17:23;29.10;97.00
48206;DHT22;33995;48.202;16.260;2023-07-28T12:20:16;29.10;97.20
48206;DHT22;33995;48.202;16.260;2023-07-28T12:22:57;29.20;97.50
48206;DHT22;33995;48.202;16.260;2023-07-28T12:25:47;29.30;98.00
48206;DHT22;33995;48.202;16.260;2023-07-28T12:28:21;29.50;97.30
48206;DHT22;33995;48.202;16.260;2023-07-28T12:30:57;29.60;97.30
48206;DHT22;33995;48.202;16.260;2023-07-28T12:33:42;29.60;97.20
48206;DHT22;33995;48.202;16.260;2023-07-28T12:36:10;29.70;97.10
48206;DHT22;33995;48.202;16.260;2023-07-28T12:38:44;29.60;96.70
48206;DHT22;33995;48.202;16.260;2023-07-28T12:41:22;29.70;96.80
48206;DHT22;33995;48.202;16.260;2023-07-28T12:44:10;29.50;96.80
48206;DHT22;33995;48.202;16.260;2023-07-28T12:47:12;29.30;96.80
48206;DHT22;33995;48.202;16.260;2023-07-28T12:49:49;28.90;97.20
48206;DHT22;33995;48.202;16.260;2023-07-28T12:52:19;28.60;97.60
48206;DHT22;33995;48.202;16.260;2023-07-28T12:55:10;28.40;98.20
48206;DHT22;33995;48.202;16.260;2023-07-28T12:57:44;28.10;98.10
48206;DHT22;33995;48.202;16.260;2023-07-28T13:00:21;27.80;98.80
48206;DHT22;33995;48.202;16.260;2023-07-28T13:03:14;27.60;98.80
48206;DHT22;33995;48.202;16.260;2023-07-28T13:05:51;27.50;99.10
48206;DHT22;33995;48.202;16.260;2023-07-28T13:08:24;27.40;99.20
48206;DHT22;33995;48.202;16.260;2023-07-28T13:10:59;27.30;99.80
48206;DHT22;33995;48.202;16.260;2023-07-28T13:13:31;27.10;99.90
48206;DHT22;33995;48.202;16.260;2023-07-28T13:16:01;26.90;99.90
48206;DHT22;33995;48.202;16.260;2023-07-28T13:18:33;26.70;99.90
48206;DHT22;33995;48.202;16.260;2023-07-28T13:21:05;26.60;99.90
48206;DHT22;33995;48.202;16.260;2023-07-28T13:23:34;26.50;99.90
48206;DHT22;33995;48.202;16.260;2023-07-28T13:26:03;26.50;99.90
48206;DHT22;33995;48.202;16.260;2023-07-28T13:28:39;26.50;99.90
48206;DHT22;33995;48.202;16.260;2023-07-28T13:31:16;26.50;99.90
48206;DHT22;33995;48.202;16.260;2023-07-28T13:33:46;26.60;99.90
48206;DHT22;33995;48.202;16.260;2023-07-28T13:36:16;26.70;99.90
48206;DHT22;33995;48.202;16.260;2023-07-28T13:39:05;26.80;99.90
48206;DHT22;33995;48.202;16.260;2023-07-28T13:41:37;26.90;99.90
48206;DHT22;33995;48.202;16.260;2023-07-28T13:44:15;27.10;99.90
48206;DHT22;33995;48.202;16.260;2023-07-28T13:46:54;27.20;99.90
48206;DHT22;33995;48.202;16.260;2023-07-28T13:49:23;27.50;99.90
48206;DHT22;33995;48.202;16.260;2023-07-28T13:51:52;27.70;99.90
48206;DHT22;33995;48.202;16.260;2023-07-28T13:54:34;27.60;99.40
48206;DHT22;33995;48.202;16.260;2023-07-28T13:57:14;27.60;99.70
48206;DHT22;33995;48.202;16.260;2023-07-28T13:59:44;27.50;99.50
48206;DHT22;33995;48.202;16.260;2023-07-28T14:02:20;27.50;99.60
48206;DHT22;33995;48.202;16.260;2023-07-28T14:04:53;27.40;99.60
48206;DHT22;33995;48.202;16.260;2023-07-28T14:07:29;27.20;99.60
48206;DHT22;33995;48.202;16.260;2023-07-28T14:10:08;27.20;99.70
48206;DHT22;33995;48.202;16.260;2023-07-28T14:12:39;27.20;99.80
48206;DHT22;33995;48.202;16.260;2023-07-28T14:15:10;27.10;99.90
48206;DHT22;33995;48.202;16.260;2023-07-28T14:17:40;27.20;99.90
48206;DHT22;33995;48.202;16.260;2023-07-28T14:20:19;27.40;99.90
48206;DHT22;33995;48.202;16.260;2023-07-28T14:22:51;27.50;99.40
48206;DHT22;33995;48.202;16.260;2023-07-28T14:25:22;27.60;99.80
48206;DHT22;33995;48.202;16.260;2023-07-28T14:27:50;27.50;99.70
48206;DHT22;33995;48.202;16.260;2023-07-28T14:30:29;27.40;99.60
48206;DHT22;33995;48.202;16.260;2023-07-28T14:33:03;27.40;99.60
48206;DHT22;33995;48.202;16.260;2023-07-28T14:35:38;27.40;99.90
48206;DHT22;33995;48.202;16.260;2023-07-28T14:38:13;27.40;99.80
48206;DHT22;33995;48.202;16.260;2023-07-28T14:40:41;27.40;99.90
48206;DHT22;33995;48.202;16.260;2023-07-28T14:43:20;27.20;99.90
48206;DHT22;33995;48.202;16.260;2023-07-28T14:45:58;27.10;99.90
48206;DHT22;33995;48.202;16.260;2023-07-28T14:48:29;27.00;99.90
48206;DHT22;33995;48.202;16.260;2023-07-28T14:51:17;26.90;99.90
48206;DHT22;33995;48.202;16.260;2023-07-28T14:53:49;26.80;99.90
48206;DHT22;33995;48.202;16.260;2023-07-28T14:56:24;26.70;99.90
48206;DHT22;33995;48.202;16.260;2023-07-28T14:58:57;26.70;99.90
48206;DHT22;33995;48.202;16.260;2023-07-28T15:01:28;26.70;99.90
48206;DHT22;33995;48.202;16.260;2023-07-28T15:04:06;26.60;99.90
48206;DHT22;33995;48.202;16.260;2023-07-28T15:06:39;26.60;99.90
48206;DHT22;33995;48.202;16.260;2023-07-28T15:09:14;26.50;99.90
48206;DHT22;33995;48.202;16.260;2023-07-28T15:11:48;26.50;99.90
48206;DHT22;33995;48.202;16.260;2023-07-28T15:14:16;26.40;99.90
48206;DHT22;33995;48.202;16.260;2023-07-28T15:16:52;26.40;99.90
48206;DHT22;33995;48.202;16.260;2023-07-28T15:19:23;26.40;99.90
48206;DHT22;33995;48.202;16.260;2023-07-28T15:21:53;26.50;99.90
48206;DHT22;33995;48.202;16.260;2023-07-28T15:24:26;26.60;99.90
48206;DHT22;33995;48.202;16.260;2023-07-28T15:26:56;26.70;99.90
48206;DHT22;33995;48.202;16.260;2023-07-28T15:29:31;26.70;99.90
48206;DHT22;33995;48.202;16.260;2023-07-28T15:32:03;26.90;99.90
48206;DHT22;33995;48.202;16.260;2023-07-28T15:34:40;26.90;99.90
48206;DHT22;33995;48.202;16.260;2023-07-28T15:37:15;27.00;99.90
48206;DHT22;33995;48.202;16.260;2023-07-28T15:39:48;27.00;99.90
48206;DHT22;33995;48.202;16.260;2023-07-28T15:42:22;27.00;99.90
48206;DHT22;33995;48.202;16.260;2023-07-28T15:44:54;27.00;99.90
48206;DHT22;33995;48.202;16.260;2023-07-28T15:47:24;27.00;99.90
48206;DHT22;33995;48.202;16.260;2023-07-28T15:50:05;26.90;99.90
48206;DHT22;33995;48.202;16.260;2023-07-28T15:52:42;26.90;99.90
48206;DHT22;33995;48.202;16.260;2023-07-28T15:55:13;26.90;99.90
48206;DHT22;33995;48.202;16.260;2023-07-28T15:57:43;26.90;99.90
48206;DHT22;33995;48.202;16.260;2023-07-28T16:00:12;26.90;99.90
48206;DHT22;33995;48.202;16.260;2023-07-28T16:02:52;26.90;99.90
48206;DHT22;33995;48.202;16.260;2023-07-28T16:05:40;26.90;99.90
48206;DHT22;33995;48.202;16.260;2023-07-28T16:08:13;26.90;99.90
48206;DHT22;33995;48.202;16.260;2023-07-28T16:10:46;26.80;99.90
48206;DHT22;33995;48.202;16.260;2023-07-28T16:13:20;26.60;99.90
48206;DHT22;33995;48.202;16.260;2023-07-28T16:16:03;26.50;99.90